createdAt,value
2018-04-25T00:01:16.471Z,100441.95
2018-04-25T00:03:42.265Z,100443.40
2018-04-25T00:06:08.036Z,100429.67
2018-04-25T00:08:33.816Z,100427.31
2018-04-25T00:10:59.568Z,100414.04
2018-04-25T00:13:25.351Z,100412.82
2018-04-25T00:15:51.101Z,100403.96
2018-04-25T00:18:16.889Z,100392.38
2018-04-25T00:20:42.659Z,100392.73
2018-04-25T00:23:08.435Z,100394.30
2018-04-25T00:25:34.183Z,100389.27
2018-04-25T00:27:59.995Z,100378.63
2018-04-25T00:30:25.779Z,100374.66
2018-04-25T00:32:51.562Z,100361.83
2018-04-25T00:35:17.335Z,100346.38
2018-04-25T00:37:43.108Z,100345.39
2018-04-25T00:40:08.851Z,100338.03
2018-04-25T00:42:34.630Z,100334.41
2018-04-25T00:45:00.407Z,100334.28
2018-04-25T00:47:26.184Z,100329.64
2018-04-25T00:49:51.962Z,100321.77
2018-04-25T00:52:17.772Z,100320.94
2018-04-25T00:54:43.544Z,100315.53
2018-04-25T00:57:09.316Z,100302.16
2018-04-25T00:59:35.084Z,100305.20
2018-04-25T01:10:37.719Z,100283.63
2018-04-25T01:13:03.490Z,100276.23
2018-04-25T01:15:29.410Z,100275.17
2018-04-25T01:17:55.196Z,100269.03
2018-04-25T01:20:20.968Z,100269.28
2018-04-25T01:22:46.727Z,100268.23
2018-04-25T01:25:20.592Z,100257.02
2018-04-25T01:27:48.064Z,100252.25
2018-04-25T01:30:14.139Z,100243.77
2018-04-25T01:32:39.959Z,100238.13
2018-04-25T01:35:05.759Z,100233.70
2018-04-25T01:37:34.344Z,100223.46
2018-04-25T01:40:00.100Z,100212.90
2018-04-25T01:42:27.788Z,100211.77
2018-04-25T01:44:55.474Z,100202.28
2018-04-25T01:47:32.110Z,100193.53
2018-04-25T01:50:02.757Z,100182.45
2018-04-25T01:52:40.925Z,100183.37
2018-04-25T01:55:19.111Z,100177.00
2018-04-25T01:57:57.204Z,100172.46
2018-04-25T02:00:35.343Z,100162.56
2018-04-25T02:03:01.003Z,100163.13
2018-04-25T02:05:26.996Z,100151.00
2018-04-25T02:07:52.747Z,100147.55
2018-04-25T02:10:18.835Z,100129.87
2018-04-25T02:12:44.592Z,100123.06
2018-04-25T02:15:10.580Z,100105.59
2018-04-25T02:17:36.368Z,100107.27
2018-04-25T02:20:02.151Z,100101.45
2018-04-25T02:22:27.904Z,100096.70
2018-04-25T02:24:53.663Z,100087.68
2018-04-25T02:27:19.424Z,100084.50
2018-04-25T02:29:45.207Z,100076.70
2018-04-25T02:32:10.966Z,100069.99
2018-04-25T02:34:36.731Z,100060.38
2018-04-25T02:37:02.502Z,100060.66
2018-04-25T02:39:28.260Z,100056.13
2018-04-25T02:41:54.037Z,100047.84
2018-04-25T02:44:19.789Z,100048.56
2018-04-25T02:46:45.601Z,100059.66
2018-04-25T02:49:11.358Z,100058.59
2018-04-25T02:51:37.152Z,100053.61
2018-04-25T02:54:02.916Z,100054.34
2018-04-25T02:56:28.700Z,100058.38
2018-04-25T02:58:54.447Z,100044.90
2018-04-25T03:01:20.259Z,100035.62
2018-04-25T03:03:46.016Z,100034.00
2018-04-25T03:06:11.831Z,100036.08
2018-04-25T03:08:37.575Z,100033.44
2018-04-25T03:11:03.352Z,100019.92
2018-04-25T03:13:29.104Z,100022.69
2018-04-25T03:15:54.888Z,100018.91
2018-04-25T03:18:20.640Z,100008.82
2018-04-25T03:20:46.424Z,100003.66
2018-04-25T03:23:12.180Z,99996.22
2018-04-25T03:25:37.975Z,99992.27
2018-04-25T03:28:03.715Z,99995.95
2018-04-25T03:30:29.684Z,99986.78
2018-04-25T03:32:55.487Z,99985.22
2018-04-25T03:35:21.252Z,99987.25
2018-04-25T03:37:46.999Z,99988.66
2018-04-25T03:40:12.766Z,99994.73
2018-04-25T03:42:38.534Z,99979.64
2018-04-25T03:45:04.311Z,99971.16
2018-04-25T03:47:30.092Z,99962.47
2018-04-25T03:49:55.847Z,99962.63
2018-04-25T03:52:21.616Z,99959.01
2018-04-25T03:54:47.364Z,99960.23
2018-04-25T03:57:13.380Z,99949.63
2018-04-25T03:59:39.136Z,99950.70
2018-04-25T04:02:04.911Z,99952.41
2018-04-25T04:04:30.658Z,99940.17
2018-04-25T04:06:56.448Z,99941.97
2018-04-25T04:09:22.193Z,99937.86
2018-04-25T04:11:47.967Z,99931.44
2018-04-25T04:14:13.709Z,99920.48
2018-04-25T04:16:39.895Z,99925.91
2018-04-25T04:19:05.668Z,99913.00
2018-04-25T04:21:31.430Z,99919.01
2018-04-25T04:23:57.192Z,99913.34
2018-04-25T04:26:22.968Z,99907.15
2018-04-25T04:28:48.712Z,99900.16
2018-04-25T04:31:14.490Z,99900.23
2018-04-25T04:33:40.227Z,99900.96
2018-04-25T04:36:06.020Z,99898.92
2018-04-25T04:38:31.779Z,99891.00
2018-04-25T04:40:57.560Z,99881.64
2018-04-25T04:43:23.307Z,99881.38
2018-04-25T04:45:49.078Z,99882.13
2018-04-25T04:48:14.898Z,99893.87
2018-04-25T04:50:40.648Z,99880.27
2018-04-25T04:53:06.419Z,99885.05
2018-04-25T04:55:32.159Z,99884.61
2018-04-25T04:57:57.927Z,99881.60
2018-04-25T05:00:23.707Z,99884.80
2018-04-25T05:02:49.472Z,99889.39
2018-04-25T05:05:15.246Z,99880.33
2018-04-25T05:07:41.090Z,99880.06
2018-04-25T05:10:06.895Z,99871.56
2018-04-25T05:12:32.703Z,99873.26
2018-04-25T05:14:58.447Z,99868.06
2018-04-25T05:17:24.228Z,99868.92
2018-04-25T05:19:49.983Z,99868.42
2018-04-25T05:22:15.766Z,99868.05
2018-04-25T05:24:41.538Z,99868.48
2018-04-25T05:27:07.304Z,99872.09
2018-04-25T05:29:33.067Z,99876.95
2018-04-25T05:31:58.867Z,99882.29
2018-04-25T05:34:24.601Z,99884.52
2018-04-25T05:36:50.376Z,99874.27
2018-04-25T05:39:16.152Z,99881.17
2018-04-25T05:41:41.908Z,99876.56
2018-04-25T05:44:07.682Z,99867.81
2018-04-25T05:46:33.770Z,99862.50
2018-04-25T05:48:59.539Z,99856.06
2018-04-25T05:51:25.329Z,99865.44
2018-04-25T05:53:51.111Z,99864.79
2018-04-25T05:56:16.855Z,99855.34
2018-04-25T05:58:42.624Z,99848.81
2018-04-25T06:01:08.383Z,99857.33
2018-04-25T06:03:34.159Z,99850.44
2018-04-25T06:05:59.918Z,99854.13
2018-04-25T06:08:25.700Z,99850.14
2018-04-25T06:10:51.459Z,99846.48
2018-04-25T06:13:17.251Z,99849.75
2018-04-25T06:15:42.994Z,99838.62
2018-04-25T06:18:08.812Z,99846.89
2018-04-25T06:20:34.560Z,99851.83
2018-04-25T06:23:00.360Z,99848.55
2018-04-25T06:25:26.135Z,99838.23
2018-04-25T06:27:51.906Z,99836.06
2018-04-25T06:30:17.664Z,99833.81
2018-04-25T06:32:43.431Z,99842.47
2018-04-25T06:35:09.219Z,99839.88
2018-04-25T06:37:35.017Z,99842.28
2018-04-25T06:40:00.837Z,99845.76
2018-04-25T06:42:26.541Z,99849.14
2018-04-25T06:44:52.371Z,99846.97
2018-04-25T06:47:18.086Z,99847.16
2018-04-25T06:49:43.876Z,99852.64
2018-04-25T06:52:09.707Z,99840.19
2018-04-25T06:54:35.495Z,99848.80
2018-04-25T06:57:01.606Z,99840.44
2018-04-25T06:59:27.374Z,99834.72
2018-04-25T07:01:53.123Z,99835.42
2018-04-25T07:04:18.903Z,99836.13
2018-04-25T07:06:44.645Z,99827.86
2018-04-25T07:09:10.428Z,99836.00
2018-04-25T07:11:36.196Z,99832.50
2018-04-25T07:14:02.076Z,99830.26
2018-04-25T07:16:27.763Z,99835.38
2018-04-25T07:18:53.540Z,99836.98
2018-04-25T07:21:19.300Z,99855.98
2018-04-25T07:23:45.154Z,99853.25
2018-04-25T07:26:10.853Z,99850.48
2018-04-25T07:28:36.648Z,99851.89
2018-04-25T07:31:02.390Z,99839.27
2018-04-25T07:33:28.185Z,99838.72
2018-04-25T07:35:53.948Z,99850.20
2018-04-25T07:38:19.727Z,99840.46
2018-04-25T07:40:45.472Z,99835.88
2018-04-25T07:43:11.266Z,99841.98
2018-04-25T07:45:37.360Z,99836.19
2018-04-25T07:48:03.279Z,99832.88
2018-04-25T07:50:29.067Z,99842.35
2018-04-25T07:52:54.820Z,99828.44
2018-04-25T07:55:20.627Z,99832.44
2018-04-25T07:57:46.468Z,99831.70
2018-04-25T08:00:12.164Z,99841.33
2018-04-25T08:02:37.923Z,99845.52
2018-04-25T08:05:03.693Z,99847.84
2018-04-25T08:07:29.449Z,99855.45
2018-04-25T08:09:55.213Z,99867.72
2018-04-25T08:12:33.439Z,99852.08
2018-04-25T08:15:11.550Z,99861.48
2018-04-25T08:17:49.606Z,99847.95
2018-04-25T08:20:27.676Z,99855.58
2018-04-25T08:22:53.439Z,99858.58
2018-04-25T08:25:19.230Z,99859.25
2018-04-25T08:27:44.975Z,99857.13
2018-04-25T08:30:10.766Z,99869.25
2018-04-25T08:32:36.511Z,99858.27
2018-04-25T08:35:02.284Z,99855.99
2018-04-25T08:37:28.051Z,99853.84
2018-04-25T08:39:53.827Z,99848.45
2018-04-25T08:42:19.581Z,99846.75
2018-04-25T08:44:45.412Z,99866.25
2018-04-25T08:47:11.135Z,99850.45
2018-04-25T08:49:36.939Z,99861.63
2018-04-25T08:52:02.712Z,99861.87
2018-04-25T08:54:28.476Z,99858.84
2018-04-25T08:56:54.302Z,99859.13
2018-04-25T08:59:20.064Z,99863.31
2018-04-25T09:01:45.835Z,99859.09
2018-04-25T09:04:11.604Z,99867.56
2018-04-25T09:06:37.368Z,99885.42
2018-04-25T09:09:03.139Z,99875.22
2018-04-25T09:11:28.903Z,99885.30
2018-04-25T09:13:54.661Z,99879.16
2018-04-25T09:16:20.440Z,99875.45
2018-04-25T09:18:46.230Z,99878.27
2018-04-25T09:21:11.980Z,99905.44
2018-04-25T09:23:37.987Z,99914.36
2018-04-25T09:26:03.760Z,99907.99
2018-04-25T09:28:29.515Z,99930.66
2018-04-25T09:30:55.274Z,99925.13
2018-04-25T09:33:21.301Z,99937.02
2018-04-25T09:35:47.084Z,99941.63
2018-04-25T09:38:12.830Z,99944.99
2018-04-25T09:40:38.616Z,99948.42
2018-04-25T09:43:04.386Z,99964.41
2018-04-25T09:45:30.159Z,99993.20
2018-04-25T09:47:55.979Z,100003.53
2018-04-25T09:50:21.722Z,100010.00
2018-04-25T09:52:47.479Z,100000.27
2018-04-25T09:55:13.268Z,100019.61
2018-04-25T09:57:39.101Z,100033.41
2018-04-25T10:00:04.802Z,100001.41
2018-04-25T10:02:32.559Z,100036.09
2018-04-25T10:04:58.336Z,100037.54
2018-04-25T10:07:24.099Z,100040.21
2018-04-25T10:09:49.862Z,100055.55
2018-04-25T10:12:15.615Z,100045.15
2018-04-25T10:14:41.399Z,100064.16
2018-04-25T10:17:07.228Z,100078.66
2018-04-25T10:19:32.971Z,100079.17
2018-04-25T10:21:58.754Z,100089.38
2018-04-25T10:24:24.512Z,100098.98
2018-04-25T10:26:50.320Z,100109.09
2018-04-25T10:29:16.132Z,100128.67
2018-04-25T10:31:41.884Z,100136.60
2018-04-25T10:34:07.640Z,100129.55
2018-04-25T10:36:33.455Z,100152.38
2018-04-25T10:38:59.276Z,100170.08
2018-04-25T10:41:25.000Z,100175.20
2018-04-25T10:43:50.782Z,100194.69
2018-04-25T10:46:16.551Z,100202.85
2018-04-25T10:48:42.328Z,100206.37
2018-04-25T10:51:08.082Z,100227.92
2018-04-25T10:53:33.857Z,100230.44
2018-04-25T10:55:59.805Z,100237.19
2018-04-25T10:58:25.575Z,100250.23
2018-04-25T11:00:51.330Z,100271.02
2018-04-25T11:03:17.135Z,100276.84
2018-04-25T11:05:42.875Z,100294.08
2018-04-25T11:08:08.631Z,100306.94
2018-04-25T11:10:34.437Z,100301.58
2018-04-25T11:13:00.189Z,100305.72
2018-04-25T11:15:25.952Z,100324.40
2018-04-25T11:17:51.710Z,100317.43
2018-04-25T11:20:17.496Z,100331.50
2018-04-25T11:22:43.305Z,100340.70
2018-04-25T11:25:09.068Z,100353.62
2018-04-25T11:27:34.859Z,100376.52
2018-04-25T11:30:00.636Z,100375.23
2018-04-25T11:32:26.397Z,100374.19
2018-04-25T11:34:52.159Z,100382.69
2018-04-25T11:37:17.938Z,100379.17
2018-04-25T11:39:43.795Z,100396.42
2018-04-25T11:42:09.588Z,100422.77
2018-04-25T11:44:35.371Z,100408.66
2018-04-25T11:47:01.152Z,100414.65
2018-04-25T11:49:26.900Z,100425.43
2018-04-25T11:51:52.656Z,100453.59
2018-04-25T11:54:18.408Z,100442.87
2018-04-25T11:56:44.255Z,100447.78
2018-04-25T11:59:10.036Z,100454.98
2018-04-25T12:01:35.783Z,100458.92
2018-04-25T12:04:01.583Z,100458.70
2018-04-25T12:06:27.447Z,100476.69
2018-04-25T12:08:53.204Z,100476.05
2018-04-25T12:11:18.971Z,100481.55
2018-04-25T12:13:44.747Z,100492.58
2018-04-25T12:16:10.532Z,100491.79
2018-04-25T12:18:36.291Z,100483.52
2018-04-25T12:21:02.042Z,100489.36
2018-04-25T12:23:27.808Z,100496.27
2018-04-25T12:31:45.557Z,100514.52
2018-04-25T12:34:11.320Z,100511.08
2018-04-25T12:36:37.089Z,100520.77
2018-04-25T12:39:02.874Z,100523.64
2018-04-25T12:41:28.640Z,100527.27
2018-04-25T12:43:54.409Z,100526.50
2018-04-25T12:46:20.179Z,100524.05
2018-04-25T12:48:45.927Z,100524.97
2018-04-25T12:51:11.708Z,100531.97
2018-04-25T12:53:37.703Z,100536.50
2018-04-25T12:56:03.463Z,100534.03
2018-04-25T12:58:29.263Z,100547.02
2018-04-25T13:00:55.082Z,100550.91
2018-04-25T13:03:20.843Z,100554.60
2018-04-25T13:05:46.589Z,100561.36
2018-04-25T13:08:12.373Z,100566.77
2018-04-25T13:10:38.175Z,100574.22
2018-04-25T13:13:03.927Z,100569.25
2018-04-25T13:15:29.700Z,100564.67
2018-04-25T13:17:55.488Z,100579.05
2018-04-25T13:20:21.293Z,100568.59
2018-04-25T13:22:47.035Z,100580.46
2018-04-25T13:25:12.803Z,100577.58
2018-04-25T13:27:38.564Z,100580.94
2018-04-25T13:30:04.356Z,100579.06
2018-04-25T13:32:30.124Z,100585.15
2018-04-25T13:34:55.916Z,100576.61
2018-04-25T13:37:21.685Z,100587.00
2018-04-25T13:39:47.450Z,100590.27
2018-04-25T13:42:13.195Z,100593.51
2018-04-25T13:44:38.969Z,100595.12
2018-04-25T13:47:04.773Z,100598.28
2018-04-25T13:49:30.599Z,100600.96
2018-04-25T13:51:56.340Z,100599.66
2018-04-25T13:54:22.104Z,100610.20
2018-04-25T13:56:47.928Z,100606.20
2018-04-25T13:59:13.696Z,100613.47
2018-04-25T14:01:39.481Z,100620.59
2018-04-25T14:04:05.243Z,100614.90
2018-04-25T14:06:30.996Z,100622.28
2018-04-25T14:08:56.752Z,100628.97
2018-04-25T14:11:22.531Z,100623.66
2018-04-25T14:13:48.288Z,100626.95
2018-04-25T14:16:14.051Z,100629.12
2018-04-25T14:18:39.828Z,100633.30
2018-04-25T14:21:05.595Z,100628.50
2018-04-25T14:23:31.367Z,100637.20
2018-04-25T14:25:57.117Z,100643.72
2018-04-25T14:28:22.958Z,100645.85
2018-04-25T14:30:48.756Z,100640.61
2018-04-25T14:33:14.505Z,100634.25
2018-04-25T14:35:40.267Z,100644.20
2018-04-25T14:38:06.016Z,100640.52
2018-04-25T14:40:31.816Z,100641.83
2018-04-25T14:42:57.568Z,100641.65
2018-04-25T14:45:23.339Z,100646.03
2018-04-25T14:47:49.091Z,100644.45
2018-04-25T14:50:14.888Z,100649.53
2018-04-25T14:52:40.641Z,100646.13
2018-04-25T14:55:06.432Z,100640.84
2018-04-25T14:57:32.175Z,100642.88
2018-04-25T14:59:57.963Z,100646.34
2018-04-25T15:02:23.707Z,100647.76
2018-04-25T15:04:50.078Z,100637.66
2018-04-25T15:07:15.851Z,100636.89
2018-04-25T15:09:41.603Z,100653.23
2018-04-25T15:12:07.362Z,100643.11
2018-04-25T15:14:33.127Z,100648.72
2018-04-25T15:16:58.909Z,100646.38
2018-04-25T15:19:24.685Z,100646.09
2018-04-25T15:21:50.436Z,100640.66
2018-04-25T15:24:16.208Z,100635.94
2018-04-25T15:26:41.987Z,100637.42
2018-04-25T15:29:07.730Z,100626.22
2018-04-25T15:31:33.711Z,100628.47
2018-04-25T15:33:59.464Z,100629.38
2018-04-25T15:36:25.229Z,100634.14
2018-04-25T15:38:50.966Z,100635.33
2018-04-25T15:41:16.758Z,100632.93
2018-04-25T15:43:42.511Z,100645.80
2018-04-25T15:46:08.291Z,100653.05
2018-04-25T15:48:34.055Z,100648.59
2018-04-25T15:50:59.830Z,100651.69
2018-04-25T15:53:25.666Z,100650.78
2018-04-25T15:55:51.387Z,100655.72
2018-04-25T15:58:17.131Z,100654.02
2018-04-25T16:00:42.918Z,100656.55
2018-04-25T16:03:08.664Z,100653.43
2018-04-25T16:05:34.443Z,100647.60
2018-04-25T16:08:00.183Z,100648.26
2018-04-25T16:10:25.968Z,100648.31
2018-04-25T16:12:51.719Z,100647.30
2018-04-25T16:15:17.503Z,100645.86
2018-04-25T16:17:43.242Z,100638.15
2018-04-25T16:20:08.990Z,100632.39
2018-04-25T16:22:34.765Z,100640.17
2018-04-25T16:25:00.903Z,100637.15
2018-04-25T16:27:26.672Z,100635.86
2018-04-25T16:29:52.440Z,100631.11
2018-04-25T16:32:18.195Z,100624.48
2018-04-25T16:34:43.966Z,100627.53
2018-04-25T16:37:09.723Z,100627.00
2018-04-25T16:39:35.479Z,100617.42
2018-04-25T16:42:01.255Z,100616.95
2018-04-25T16:44:27.020Z,100619.28
2018-04-25T16:46:53.088Z,100610.97
2018-04-25T16:49:18.864Z,100614.02
2018-04-25T16:51:44.623Z,100613.97
2018-04-25T16:54:10.384Z,100617.80
2018-04-25T16:56:36.456Z,100604.77
2018-04-25T16:59:02.228Z,100600.83
2018-04-25T17:01:28.027Z,100615.56
2018-04-25T17:03:53.776Z,100607.91
2018-04-25T17:06:20.107Z,100601.34
2018-04-25T17:08:45.860Z,100603.66
2018-04-25T17:11:11.614Z,100606.59
2018-04-25T17:13:37.371Z,100599.91
2018-04-25T17:16:03.179Z,100603.46
2018-04-25T17:18:28.924Z,100602.00
2018-04-25T17:20:54.680Z,100593.02
2018-04-25T17:23:20.429Z,100592.75
2018-04-25T17:25:46.215Z,100599.02
2018-04-25T17:28:11.943Z,100596.00
2018-04-25T17:30:37.686Z,100595.41
2018-04-25T17:33:03.461Z,100593.50
2018-04-25T17:35:29.387Z,100596.20
2018-04-25T17:37:55.188Z,100590.77
2018-04-25T17:40:20.951Z,100595.12
2018-04-25T17:42:46.721Z,100595.89
2018-04-25T17:45:12.466Z,100599.11
2018-04-25T17:47:38.455Z,100597.20
2018-04-25T17:50:04.220Z,100593.39
2018-04-25T17:52:30.015Z,100592.81
2018-04-25T17:54:55.812Z,100590.95
2018-04-25T17:57:21.580Z,100590.41
2018-04-25T17:59:47.349Z,100592.08
2018-04-25T18:02:13.357Z,100594.41
2018-04-25T18:04:39.123Z,100593.09
2018-04-25T18:07:04.915Z,100594.41
2018-04-25T18:09:30.658Z,100589.77
2018-04-25T18:11:56.574Z,100597.44
2018-04-25T18:14:22.380Z,100602.34
2018-04-25T18:16:48.194Z,100602.77
2018-04-25T18:19:13.906Z,100605.63
2018-04-25T18:21:39.680Z,100607.17
2018-04-25T18:24:05.435Z,100610.03
2018-04-25T18:26:31.444Z,100611.28
2018-04-25T18:28:57.236Z,100607.88
2018-04-25T18:31:23.008Z,100615.17
2018-04-25T18:33:48.767Z,100632.91
2018-04-25T18:36:14.527Z,100655.56
2018-04-25T18:38:40.285Z,100669.45
2018-04-25T18:41:06.075Z,100671.88
2018-04-25T18:43:31.888Z,100669.45
2018-04-25T18:45:57.632Z,100666.89
2018-04-25T18:48:23.414Z,100657.67
2018-04-25T18:50:49.172Z,100648.37
2018-04-25T18:53:14.987Z,100652.22
2018-04-25T18:55:40.727Z,100654.31
2018-04-25T18:58:06.688Z,100652.55
2018-04-25T19:00:32.442Z,100647.09
2018-04-25T19:02:58.215Z,100642.12
2018-04-25T19:05:23.967Z,100636.10
2018-04-25T19:07:49.727Z,100632.58
2018-04-25T19:10:15.503Z,100640.50
2018-04-25T19:12:41.320Z,100642.06
2018-04-25T19:15:07.080Z,100649.28
2018-04-25T19:17:32.902Z,100652.31
2018-04-25T19:19:58.672Z,100661.91
2018-04-25T19:22:31.328Z,100662.70
2018-04-25T19:24:57.082Z,100665.28
2018-04-25T19:27:22.871Z,100673.68
2018-04-25T19:29:48.629Z,100681.55
2018-04-25T19:32:14.416Z,100678.25
2018-04-25T19:34:40.159Z,100686.06
2018-04-25T19:37:05.950Z,100678.55
2018-04-25T19:39:31.698Z,100661.42
2018-04-25T19:41:57.474Z,100681.17
2018-04-25T19:44:23.243Z,100670.18
2018-04-25T19:46:49.004Z,100668.48
2018-04-25T19:49:14.815Z,100663.63
2018-04-25T19:51:40.786Z,100672.89
2018-04-25T19:54:06.567Z,100672.38
2018-04-25T19:56:32.303Z,100673.89
2018-04-25T19:58:58.071Z,100680.18
2018-04-25T20:01:23.843Z,100676.52
2018-04-25T20:03:49.631Z,100671.52
2018-04-25T20:06:15.399Z,100680.44
2018-04-25T20:08:41.157Z,100678.50
2018-04-25T20:11:06.930Z,100677.59
2018-04-25T20:13:32.720Z,100677.59
2018-04-25T20:15:58.480Z,100676.17
2018-04-25T20:18:24.235Z,100670.87
2018-04-25T20:20:49.984Z,100668.86
2018-04-25T20:23:15.751Z,100673.65
2018-04-25T20:25:41.526Z,100680.00
2018-04-25T20:28:07.340Z,100676.88
2018-04-25T20:30:33.096Z,100672.91
2018-04-25T20:32:58.903Z,100675.20
2018-04-25T20:35:24.697Z,100684.06
2018-04-25T20:37:50.505Z,100684.19
2018-04-25T20:40:16.263Z,100688.33
2018-04-25T20:42:42.037Z,100683.66
2018-04-25T20:45:07.790Z,100683.09
2018-04-25T20:47:33.605Z,100679.52
2018-04-25T20:49:59.359Z,100678.80
2018-04-25T20:52:25.112Z,100685.08
2018-04-25T20:54:50.898Z,100682.30
2018-04-25T20:57:16.715Z,100683.42
2018-04-25T20:59:42.515Z,100679.91
2018-04-25T21:02:08.308Z,100677.99
2018-04-25T21:04:34.078Z,100679.16
2018-04-25T21:06:59.831Z,100684.12
2018-04-25T21:09:25.626Z,100681.03
2018-04-25T21:11:51.367Z,100684.23
2018-04-25T21:14:17.141Z,100688.02
2018-04-25T21:16:42.895Z,100685.73
2018-04-25T21:19:08.676Z,100689.30
2018-04-25T21:21:34.426Z,100695.22
2018-04-25T21:24:00.264Z,100691.84
2018-04-25T21:26:25.951Z,100696.84
2018-04-25T21:28:51.727Z,100696.51
2018-04-25T21:31:17.539Z,100695.22
2018-04-25T21:33:43.253Z,100699.75
2018-04-25T21:36:08.995Z,100698.73
2018-04-25T21:38:34.784Z,100701.92
2018-04-25T21:41:00.538Z,100701.03
2018-04-25T21:43:26.300Z,100696.92
2018-04-25T21:45:52.048Z,100702.29
2018-04-25T21:48:17.996Z,100699.08
2018-04-25T21:50:43.759Z,100700.80
2018-04-25T21:53:09.537Z,100699.27
2018-04-25T21:55:35.295Z,100696.94
2018-04-25T21:58:01.176Z,100689.34
2018-04-25T22:00:26.887Z,100685.88
2018-04-25T22:02:52.653Z,100694.95
2018-04-25T22:05:18.398Z,100690.33
2018-04-25T22:07:44.148Z,100681.19
2018-04-25T22:10:09.923Z,100687.30
2018-04-25T22:12:35.691Z,100677.17
2018-04-25T22:15:01.459Z,100686.38
2018-04-25T22:17:27.245Z,100682.78
2018-04-25T22:19:53.023Z,100693.84
2018-04-25T22:22:18.771Z,100686.98
2018-04-25T22:24:44.535Z,100688.06
2018-04-25T22:27:10.301Z,100684.93
2018-04-25T22:29:36.067Z,100689.00
2018-04-25T22:32:01.817Z,100686.01
2018-04-25T22:34:27.589Z,100694.59
2018-04-25T22:36:53.347Z,100694.18
2018-04-25T22:39:19.123Z,100692.59
2018-04-25T22:41:44.871Z,100688.58
2018-04-25T22:44:10.646Z,100686.44
2018-04-25T22:46:36.419Z,100691.33
2018-04-25T22:49:02.211Z,100685.18
2018-04-25T22:51:27.960Z,100685.27
2018-04-25T22:59:38.412Z,100686.39
2018-04-25T23:02:04.195Z,100686.86
2018-04-25T23:04:29.969Z,100689.14
2018-04-25T23:06:55.715Z,100681.41
2018-04-25T23:09:21.483Z,100683.83
2018-04-25T23:11:47.227Z,100679.27
2018-04-25T23:14:13.024Z,100683.50
2018-04-25T23:16:38.763Z,100676.91
2018-04-25T23:19:04.563Z,100678.80
2018-04-25T23:21:30.299Z,100680.13
2018-04-25T23:23:56.077Z,100672.48
2018-04-25T23:26:21.832Z,100670.34
2018-04-25T23:28:47.591Z,100676.03
2018-04-25T23:31:13.347Z,100670.95
2018-04-25T23:33:39.708Z,100676.17
2018-04-25T23:36:05.495Z,100668.80
2018-04-25T23:38:31.259Z,100668.44
2018-04-25T23:40:57.021Z,100670.34
2018-04-25T23:43:22.770Z,100672.85
2018-04-25T23:45:49.416Z,100678.17
2018-04-25T23:48:15.171Z,100667.40
2018-04-25T23:50:40.952Z,100663.53
2018-04-25T23:53:06.789Z,100663.66
2018-04-25T23:55:32.579Z,100665.95
2018-04-25T23:57:58.356Z,100662.27
